Time;durP1;ratioP1;P1;durP2;ratioP2;P2;SDS_P1;SDS_P2;PMS_P1;PMS_P2;Temp;Humidity;BMP_temperature;BMP_pressure;BME280_temperature;BME280_humidity;BME280_pressure;Samples;Min_cycle;Max_cycle;Signal;HPM_P1;HPM_P2
2022/12/10 07:06:22;;;;;;;65.47;34.38;;;;;;;-0.54;98.39;100761.78;5300178;27;20202;-68
2022/12/10 07:08:54;;;;;;;65.28;35.85;;;;;;;-0.51;99.30;100768.69;5279415;28;20037;-69
2022/12/10 07:11:25;;;;;;;68.65;37.88;;;;;;;-0.49;98.84;100763.88;5258429;28;20032;-69
2022/12/10 07:13:57;;;;;;;65.78;35.53;;;;;;;-0.46;98.73;100758.84;5258461;28;20029;-69
2022/12/10 07:16:31;;;;;;;64.22;37.42;;;;;;;-0.52;98.16;100764.31;5258452;28;20021;-69
2022/12/10 07:19:02;;;;;;;67.85;38.13;;;;;;;-0.42;98.85;100763.84;5283109;28;20024;-69
2022/12/10 07:21:35;;;;;;;67.07;36.22;;;;;;;-0.37;99.39;100762.13;5300735;28;20386;-69
2022/12/10 07:24:10;;;;;;;67.07;37.75;;;;;;;-0.39;98.73;100768.84;5300397;28;20438;-69
2022/12/10 07:26:43;;;;;;;62.83;35.70;;;;;;;-0.44;99.01;100767.59;5268706;28;20060;-70
2022/12/10 07:29:17;;;;;;;70.05;36.35;;;;;;;-0.51;98.96;100766.84;5279000;28;20021;-69
2022/12/10 07:31:49;;;;;;;65.47;37.03;;;;;;;-0.47;99.19;100773.50;5279188;28;20025;-69
2022/12/10 07:34:20;;;;;;;66.05;36.88;;;;;;;-0.37;100.00;100769.47;5278597;28;20388;-69
2022/12/10 07:36:52;;;;;;;67.25;36.90;;;;;;;-0.36;99.08;100769.22;5278700;28;20017;-69
2022/12/10 07:39:23;;;;;;;65.60;37.78;;;;;;;-0.35;99.49;100776.38;5278704;28;20021;-69
2022/12/10 07:41:54;;;;;;;64.80;37.67;;;;;;;-0.27;99.79;100772.56;5271175;28;20152;-69
2022/12/10 07:44:26;;;;;;;59.00;34.08;;;;;;;-0.34;98.75;100777.19;5268803;28;20031;-69
2022/12/10 07:46:57;;;;;;;67.22;37.85;;;;;;;-0.27;99.51;100783.44;5281089;28;20028;-69
2022/12/10 07:49:30;;;;;;;61.33;35.13;;;;;;;-0.26;99.39;100785.09;5275976;28;20114;-69
2022/12/10 07:52:01;;;;;;;66.40;35.65;;;;;;;-0.17;99.14;100783.81;5299853;28;20426;-68
2022/12/10 07:54:32;;;;;;;62.15;36.53;;;;;;;-0.16;98.78;100785.47;5282348;28;20028;-69
2022/12/10 07:57:07;;;;;;;57.45;31.80;;;;;;;0.16;100.00;100794.47;5271349;28;20021;-70
2022/12/10 07:59:38;;;;;;;57.90;31.42;;;;;;;0.39;100.00;100793.84;5269705;28;20036;-74
2022/12/10 08:02:10;;;;;;;61.28;35.17;;;;;;;0.24;100.00;100789.78;5273192;28;20075;-70
2022/12/10 08:04:41;;;;;;;58.25;35.15;;;;;;;0.16;99.75;100788.19;5261642;28;20124;-71
2022/12/10 08:07:13;;;;;;;63.67;34.35;;;;;;;0.07;98.53;100792.22;5258188;28;20040;-70
2022/12/10 08:09:44;;;;;;;56.30;33.10;;;;;;;0.26;100.00;100793.97;5272415;28;20107;-70
2022/12/10 08:12:15;;;;;;;59.75;35.03;;;;;;;-0.09;98.79;100797.16;5278210;28;20024;-69
2022/12/10 08:14:47;;;;;;;56.35;32.33;;;;;;;-0.12;99.27;100791.31;5274454;28;20029;-69
2022/12/10 08:17:18;;;;;;;59.83;33.78;;;;;;;-0.11;99.57;100799.25;5262617;28;20021;-69
2022/12/10 08:19:50;;;;;;;59.10;34.78;;;;;;;-0.10;99.42;100806.41;5253000;28;20034;-69
2022/12/10 08:22:21;;;;;;;56.33;32.72;;;;;;;-0.16;99.11;100810.00;5254809;28;20041;-70
2022/12/10 08:24:53;;;;;;;57.42;32.78;;;;;;;-0.14;99.18;100804.34;5243924;28;20365;-71
2022/12/10 08:27:27;;;;;;;55.67;33.72;;;;;;;-0.12;99.69;100813.13;5257824;28;20079;-70
2022/12/10 08:29:58;;;;;;;54.50;30.27;;;;;;;-0.12;99.15;100816.69;5263855;28;20096;-69
2022/12/10 08:32:29;;;;;;;54.13;33.22;;;;;;;-0.09;99.28;100821.69;5262471;28;20140;-71
2022/12/10 08:35:01;;;;;;;62.92;31.88;;;;;;;-0.23;99.01;100820.09;5258274;28;20115;-69
2022/12/10 08:37:32;;;;;;;57.30;31.95;;;;;;;-0.14;99.07;100818.78;5260293;28;20013;-69
2022/12/10 08:40:04;;;;;;;54.35;32.47;;;;;;;-0.13;99.22;100822.34;5264676;28;20033;-69
2022/12/10 08:42:35;;;;;;;61.55;34.10;;;;;;;-0.06;99.44;100831.31;5260497;28;20120;-68
2022/12/10 08:45:07;;;;;;;62.45;35.08;;;;;;;-0.10;99.30;100836.41;5252885;28;20049;-69
2022/12/10 08:47:38;;;;;;;55.47;31.98;;;;;;;-0.01;100.00;100836.97;5284745;28;20032;-69
2022/12/10 08:50:13;;;;;;;52.83;30.67;;;;;;;0.05;99.19;100835.22;5255581;28;20068;-69
2022/12/10 08:52:44;;;;;;;59.30;32.83;;;;;;;-0.03;99.17;100834.44;5284626;28;20025;-69
2022/12/10 08:55:15;;;;;;;57.08;31.15;;;;;;;-0.08;98.78;100834.25;5267156;28;20071;-69
2022/12/10 08:57:47;;;;;;;52.83;30.60;;;;;;;0.03;99.44;100834.66;5279911;28;20063;-69
2022/12/10 09:00:21;;;;;;;52.05;30.65;;;;;;;0.03;99.62;100837.38;5284144;28;20036;-69
2022/12/10 09:02:52;;;;;;;50.05;30.13;;;;;;;0.01;98.87;100847.66;5265695;28;20032;-71
2022/12/10 09:05:23;;;;;;;51.50;29.27;;;;;;;0.05;99.03;100846.16;5260159;28;20053;-69
2022/12/10 09:07:55;;;;;;;48.72;28.58;;;;;;;0.11;99.29;100845.28;5262506;28;20027;-69
2022/12/10 09:10:26;;;;;;;50.35;30.23;;;;;;;0.02;98.62;100849.31;5284882;28;20028;-69
2022/12/10 09:12:58;;;;;;;49.72;27.27;;;;;;;-0.01;98.05;100854.16;5269968;28;20021;-69
2022/12/10 09:15:29;;;;;;;49.53;29.00;;;;;;;-0.01;98.27;100854.16;5263326;28;20048;-69
2022/12/10 09:18:01;;;;;;;48.45;27.98;;;;;;;-0.15;97.85;100849.00;5263751;28;20027;-69
2022/12/10 09:20:32;;;;;;;46.47;27.38;;;;;;;-0.08;99.21;100850.63;5253023;28;20024;-69
2022/12/10 09:23:03;;;;;;;49.13;29.02;;;;;;;0.07;99.53;100857.66;5244991;28;20451;-69
2022/12/10 09:25:34;;;;;;;47.28;27.30;;;;;;;-0.02;98.54;100852.50;5245612;28;20173;-69
2022/12/10 09:28:06;;;;;;;45.05;26.92;;;;;;;0.04;98.57;100860.84;5240790;28;20095;-68
2022/12/10 09:30:37;;;;;;;44.42;26.83;;;;;;;-0.02;98.67;100855.22;5255328;28;20554;-68
2022/12/10 09:33:09;;;;;;;46.35;25.88;;;;;;;-0.04;98.86;100859.22;5244136;28;20484;-68
2022/12/10 09:35:41;;;;;;;51.55;29.15;;;;;;;-0.03;99.42;100855.41;5258252;28;20099;-68
2022/12/10 09:38:12;;;;;;;52.53;28.58;;;;;;;-0.02;99.05;100857.94;5251668;28;20021;-68
2022/12/10 09:41:03;;;;;;;52.35;29.05;;;;;;;0.04;99.53;100863.56;5242627;28;20051;-66
2022/12/10 09:43:51;;;;;;;48.15;26.95;;;;;;;0.10;99.59;100871.72;5245480;28;20368;-67
2022/12/10 09:46:33;;;;;;;70.47;44.65;;;;;;;0.08;99.12;100867.53;5262252;28;20116;-68
2022/12/10 09:49:25;;;;;;;52.40;29.25;;;;;;;0.08;97.95;100879.28;5261256;28;20021;-68
2022/12/10 09:52:01;;;;;;;43.72;26.42;;;;;;;-0.05;97.81;100872.03;5241197;28;20041;-68
2022/12/10 09:54:37;;;;;;;47.47;27.73;;;;;;;-0.04;98.48;100862.78;5240836;28;20053;-68
2022/12/10 09:57:20;;;;;;;46.60;25.65;;;;;;;-0.02;98.92;100868.03;5259109;28;20033;-68
2022/12/10 09:59:52;;;;;;;43.88;26.55;;;;;;;-0.03;98.08;100872.59;5247015;28;20052;-69
2022/12/10 10:02:31;;;;;;;48.28;28.05;;;;;;;-0.05;98.29;100877.47;5260654;28;20021;-69
2022/12/10 10:05:10;;;;;;;44.15;25.95;;;;;;;0.09;99.30;100888.28;5283021;28;20040;-69
2022/12/10 10:07:49;;;;;;;51.63;30.13;;;;;;;0.34;100.00;100880.97;5263239;28;20104;-70
2022/12/10 10:10:38;;;;;;;49.75;26.95;;;;;;;0.38;98.58;100884.94;5260808;28;20048;-68
2022/12/10 10:13:18;;;;;;;43.97;25.65;;;;;;;0.56;98.98;100891.50;5260100;28;20028;-69
2022/12/10 10:15:55;;;;;;;50.60;26.73;;;;;;;0.50;97.90;100890.50;5249640;28;20400;-69
2022/12/10 10:18:39;;;;;;;46.00;26.60;;;;;;;0.53;97.65;100894.69;5249188;28;20022;-70
2022/12/10 10:21:38;;;;;;;46.28;27.33;;;;;;;0.57;96.35;100887.75;5239415;28;20439;-69
2022/12/10 10:24:16;;;;;;;44.58;26.42;;;;;;;0.48;96.27;100892.63;5258161;28;20068;-70
2022/12/10 10:26:53;;;;;;;43.58;24.85;;;;;;;0.43;96.07;100890.59;5280243;28;20414;-70
2022/12/10 10:29:26;;;;;;;44.17;26.08;;;;;;;0.41;96.42;100894.59;5266458;28;20033;-71
2022/12/10 10:32:47;;;;;;;41.58;25.38;;;;;;;0.48;96.85;100889.06;5257584;28;20120;-71
2022/12/10 10:35:32;;;;;;;46.28;26.27;;;;;;;0.46;97.05;100893.91;5248509;28;20033;-71
2022/12/10 10:38:13;;;;;;;46.25;24.60;;;;;;;0.63;98.43;100892.31;5260440;28;20021;-73
2022/12/10 10:40:50;;;;;;;44.33;25.75;;;;;;;0.50;96.71;100886.94;5261393;28;20060;-71
2022/12/10 10:43:25;;;;;;;41.38;24.75;;;;;;;0.55;97.30;100892.59;5254299;28;20108;-69
2022/12/10 10:46:01;;;;;;;50.33;27.65;;;;;;;0.47;96.35;100888.22;5241127;28;20025;-72
2022/12/10 10:48:32;;;;;;;46.10;27.75;;;;;;;0.55;96.93;100885.22;5242154;28;20034;-74
2022/12/10 10:51:12;;;;;;;49.78;26.63;;;;;;;0.65;97.65;100887.47;5256099;28;20052;-72
2022/12/10 10:53:51;;;;;;;41.05;24.73;;;;;;;0.56;96.11;100886.06;5261502;28;20040;-73
2022/12/10 10:56:32;;;;;;;41.67;24.60;;;;;;;0.52;96.42;100885.69;5261142;28;20029;-72
2022/12/10 10:59:12;;;;;;;42.53;26.58;;;;;;;0.40;95.73;100888.28;5261020;28;20388;-73
2022/12/10 11:01:52;;;;;;;50.20;27.58;;;;;;;0.42;96.62;100882.59;5262105;28;20109;-72
2022/12/10 11:04:48;;;;;;;45.90;27.58;;;;;;;0.43;97.32;100885.13;5260934;28;20045;-72
2022/12/10 11:07:38;;;;;;;46.70;25.33;;;;;;;0.90;100.00;100883.88;5258729;28;20048;-74
2022/12/10 11:10:19;;;;;;;42.13;24.88;;;;;;;0.61;97.71;100878.03;5240781;28;20041;-71
2022/12/10 11:12:57;;;;;;;45.80;25.92;;;;;;;0.40;97.01;100874.63;5247540;28;20029;-71
2022/12/10 11:15:31;;;;;;;50.78;26.88;;;;;;;0.38;97.32;100867.72;5274627;28;20021;-70
2022/12/10 11:18:20;;;;;;;50.05;28.00;;;;;;;0.54;98.01;100871.81;5242665;28;20026;-71
2022/12/10 11:21:00;;;;;;;41.63;24.60;;;;;;;0.52;98.16;100873.94;5281669;28;20055;-71
2022/12/10 11:23:38;;;;;;;41.90;25.13;;;;;;;0.48;97.02;100868.06;5267367;28;20021;-71
2022/12/10 11:26:29;;;;;;;46.42;27.20;;;;;;;0.41;97.47;100873.59;5240230;28;20025;-71
2022/12/10 11:29:19;;;;;;;47.17;25.92;;;;;;;0.43;97.55;100866.03;5251577;28;20488;-72
2022/12/10 11:32:10;;;;;;;43.67;26.35;;;;;;;0.39;97.54;100864.78;5275644;28;20063;-71
2022/12/10 11:34:47;;;;;;;44.58;25.60;;;;;;;0.25;96.96;100865.94;5281693;28;20040;-71
2022/12/10 11:37:38;;;;;;;50.17;28.83;;;;;;;0.39;97.80;100864.78;5281617;28;20036;-71
2022/12/10 11:40:14;;;;;;;45.10;25.58;;;;;;;0.41;97.47;100862.69;5273167;28;20045;-71
2022/12/10 11:43:26;;;;;;;49.25;27.00;;;;;;;0.42;97.27;100863.50;5239693;28;20029;-71
2022/12/10 11:46:25;;;;;;;47.42;26.17;;;;;;;0.50;97.82;100865.13;5240414;28;20048;-71
2022/12/10 11:49:21;;;;;;;46.53;24.85;;;;;;;0.47;97.30;100863.69;5252252;28;20029;-72
2022/12/10 11:52:05;;;;;;;40.85;24.83;;;;;;;0.38;96.79;100868.59;5253448;28;20068;-73
2022/12/10 11:55:08;;;;;;;43.92;25.48;;;;;;;0.46;97.26;100874.81;5265451;28;20029;-74
2022/12/10 11:58:02;;;;;;;45.75;24.70;;;;;;;0.45;97.10;100867.69;5234300;28;20092;-75
2022/12/10 12:00:47;;;;;;;48.00;26.17;;;;;;;0.52;97.71;100868.47;5244414;28;20037;-75
2022/12/10 12:03:38;;;;;;;64.78;37.95;;;;;;;0.90;100.00;100881.16;5264731;28;20029;-76
2022/12/10 12:06:36;;;;;;;44.35;25.75;;;;;;;0.53;99.20;100870.13;5285964;28;20132;-74
2022/12/10 12:09:15;;;;;;;43.88;27.00;;;;;;;0.56;98.22;100869.69;5284787;28;20056;-73
2022/12/10 12:11:49;;;;;;;46.30;26.58;;;;;;;0.67;97.87;100866.25;5285587;28;20031;-74
2022/12/10 12:14:36;;;;;;;53.72;27.73;;;;;;;0.72;97.00;100871.88;5274269;28;20099;-77
2022/12/10 12:17:39;;;;;;;45.65;26.25;;;;;;;0.74;96.64;100872.47;5244328;28;20396;-75
2022/12/10 12:20:27;;;;;;;48.75;28.95;;;;;;;0.69;96.90;100875.03;5244693;28;20041;-76
2022/12/10 12:23:10;;;;;;;45.38;26.27;;;;;;;0.78;96.54;100870.94;5242827;28;20034;-72
2022/12/10 12:25:46;;;;;;;41.92;23.30;;;;;;;0.55;95.70;100873.47;5259680;28;20139;-73
2022/12/10 12:28:43;;;;;;;41.72;25.20;;;;;;;0.53;96.65;100868.22;5260758;28;20042;-72
2022/12/10 12:31:20;;;;;;;43.53;27.38;;;;;;;0.56;97.65;100870.53;5262662;28;20464;-72
2022/12/10 12:34:05;;;;;;;43.10;24.10;;;;;;;0.62;97.19;100868.81;5261948;28;20523;-71
2022/12/10 12:36:37;;;;;;;37.53;23.13;;;;;;;0.59;96.92;100871.97;5250913;28;20029;-73
2022/12/10 12:39:30;;;;;;;39.95;24.05;;;;;;;0.54;97.03;100866.34;5264190;28;20575;-72
2022/12/10 12:42:17;;;;;;;41.03;25.23;;;;;;;0.46;97.06;100862.00;5264708;28;20461;-74
2022/12/10 12:45:26;;;;;;;41.42;25.55;;;;;;;0.38;97.22;100868.59;5263056;28;20021;-72
2022/12/10 12:48:00;;;;;;;38.60;24.05;;;;;;;0.21;97.39;100876.47;5228270;28;20048;-73
2022/12/10 12:50:40;;;;;;;39.47;22.90;;;;;;;0.38;97.61;100868.59;5249338;28;20087;-74
2022/12/10 12:53:23;;;;;;;36.30;22.00;;;;;;;0.41;97.99;100868.13;5269257;28;20059;-75
2022/12/10 12:56:15;;;;;;;38.47;23.20;;;;;;;0.64;98.04;100870.25;5236680;28;20476;-73
2022/12/10 12:59:05;;;;;;;36.50;24.05;;;;;;;0.63;96.25;100878.66;5263147;28;20479;-72
2022/12/10 13:02:21;;;;;;;39.70;22.83;;;;;;;0.64;96.10;100878.44;5264296;28;20032;-75
2022/12/10 13:04:53;;;;;;;40.80;23.95;;;;;;;0.66;96.62;100875.47;5231093;28;20053;-76
2022/12/10 13:07:24;;;;;;;42.25;23.75;;;;;;;0.62;95.60;100882.44;5248508;28;20037;-74
2022/12/10 13:10:22;;;;;;;38.30;21.88;;;;;;;0.76;97.01;100875.78;5263999;28;20032;-74
2022/12/10 13:13:19;;;;;;;39.67;23.33;;;;;;;0.78;96.21;100887.34;5257230;28;20021;-74
2022/12/10 13:15:51;;;;;;;37.97;23.02;;;;;;;0.70;96.47;100875.88;5256028;28;20033;-76
2022/12/10 13:18:36;;;;;;;38.55;22.27;;;;;;;0.80;96.77;100884.41;5270551;28;20028;-71
2022/12/10 13:21:27;;;;;;;48.83;29.88;;;;;;;0.87;96.30;100887.91;5267545;28;20048;-75
2022/12/10 13:24:09;;;;;;;39.47;22.55;;;;;;;0.91;96.82;100877.34;5242739;28;20394;-73
2022/12/10 13:27:14;;;;;;;40.67;24.10;;;;;;;0.79;95.61;100879.97;5241941;28;20100;-72
2022/12/10 13:29:48;;;;;;;41.60;24.38;;;;;;;0.71;96.14;100881.09;5244307;28;20484;-72
2022/12/10 13:32:23;;;;;;;47.30;26.60;;;;;;;0.67;96.85;100888.06;5283956;28;20115;-71
2022/12/10 13:35:09;;;;;;;42.83;22.88;;;;;;;0.71;96.96;100883.81;5275901;28;20017;-73
2022/12/10 13:37:49;;;;;;;38.22;23.30;;;;;;;0.74;96.69;100883.41;5242633;28;20053;-72
2022/12/10 13:46:31;;;;;;;38.90;20.40;;;;;;;0.81;95.84;100892.34;5262700;28;19924;-74
2022/12/10 13:49:04;;;;;;;41.63;23.65;;;;;;;0.75;96.41;100887.78;5251071;28;20036;-74
2022/12/10 13:51:54;;;;;;;39.50;23.60;;;;;;;0.83;96.51;100886.66;5242746;28;20037;-76
2022/12/10 13:54:28;;;;;;;49.03;24.60;;;;;;;0.71;96.88;100889.28;5224973;28;20069;-79
2022/12/10 13:57:26;;;;;;;44.53;25.25;;;;;;;0.78;97.26;100889.22;5252233;28;20387;-74
2022/12/10 14:00:05;;;;;;;43.35;24.33;;;;;;;0.72;96.85;100888.25;5268752;28;20020;-73
2022/12/10 14:02:53;;;;;;;45.05;24.92;;;;;;;0.75;97.00;100892.41;5250400;28;20456;-73
2022/12/10 14:05:43;;;;;;;45.50;25.45;;;;;;;0.75;97.62;100901.44;5241448;28;20042;-73
2022/12/10 14:08:19;;;;;;;42.67;24.88;;;;;;;0.75;97.21;100906.06;5241564;28;20034;-72
2022/12/10 14:10:51;;;;;;;47.20;26.20;;;;;;;0.81;97.41;100905.16;5242157;28;20037;-71
2022/12/10 14:13:33;;;;;;;45.08;26.15;;;;;;;0.83;97.08;100906.63;5248580;28;20025;-74
2022/12/10 14:16:10;;;;;;;42.28;23.60;;;;;;;0.84;97.46;100904.72;5250019;28;20037;-73
2022/12/10 14:18:45;;;;;;;46.70;27.23;;;;;;;1.00;98.88;100903.31;5241608;28;20424;-80
2022/12/10 14:21:18;;;;;;;48.33;30.83;;;;;;;0.80;97.97;100907.06;5242313;28;20350;-73
2022/12/10 14:23:49;;;;;;;53.97;31.75;;;;;;;0.94;97.75;100906.94;5261557;28;20032;-73
2022/12/10 14:26:33;;;;;;;44.70;25.88;;;;;;;0.97;97.29;100904.63;5262572;28;20033;-73
2022/12/10 14:29:07;;;;;;;48.90;23.73;;;;;;;0.80;96.34;100907.06;5254542;28;20022;-75
2022/12/10 14:31:44;;;;;;;50.20;27.15;;;;;;;0.71;97.46;100904.84;5253121;28;20542;-74
2022/12/10 14:34:24;;;;;;;44.63;24.88;;;;;;;0.81;97.63;100910.63;5248960;28;20021;-75
2022/12/10 14:37:00;;;;;;;42.03;24.17;;;;;;;0.67;97.10;100909.91;5241795;28;20029;-75
2022/12/10 14:39:33;;;;;;;39.83;22.35;;;;;;;0.61;97.94;100911.66;5242833;28;20033;-73
2022/12/10 14:42:07;;;;;;;44.13;23.25;;;;;;;0.33;98.05;100916.66;5242092;28;20473;-74
2022/12/10 14:44:40;;;;;;;42.20;25.10;;;;;;;0.51;98.78;100913.19;5240793;28;20104;-70
2022/12/10 14:47:17;;;;;;;45.80;25.23;;;;;;;0.68;100.00;100917.03;5249677;28;20025;-73
2022/12/10 14:49:51;;;;;;;64.97;35.13;;;;;;;0.67;98.83;100918.09;5240809;28;20021;-75
2022/12/10 14:52:35;;;;;;;47.88;25.77;;;;;;;0.78;99.03;100917.38;5243331;28;20433;-74
2022/12/10 14:55:11;;;;;;;48.95;25.73;;;;;;;0.65;98.05;100920.22;5244408;28;20431;-74
2022/12/10 14:57:48;;;;;;;52.05;29.25;;;;;;;0.73;99.01;100919.94;5239362;28;20029;-75
2022/12/10 15:00:22;;;;;;;56.05;30.67;;;;;;;0.76;98.23;100915.91;5240264;28;20026;-76
2022/12/10 15:03:00;;;;;;;51.70;29.38;;;;;;;0.79;98.86;100919.06;5259613;28;20027;-73
2022/12/10 15:05:32;;;;;;;54.25;29.00;;;;;;;0.82;98.13;100912.31;5244327;28;20045;-76
2022/12/10 15:08:06;;;;;;;62.33;34.55;;;;;;;0.92;99.05;100919.97;5245208;28;20153;-76
2022/12/10 15:10:40;;;;;;;53.85;28.77;;;;;;;0.90;97.83;100911.19;5250641;28;20091;-74
2022/12/10 15:13:41;;;;;;;60.08;31.77;;;;;;;0.80;98.71;100915.25;5262705;28;20078;-71
2022/12/10 15:16:18;;;;;;;63.10;33.15;;;;;;;0.80;97.83;100915.25;5265485;28;20160;-76
2022/12/10 15:18:50;;;;;;;53.15;29.90;;;;;;;0.73;98.42;100914.47;5261674;28;20029;-76
2022/12/10 15:21:24;;;;;;;54.35;28.80;;;;;;;0.80;99.65;100915.25;5253971;28;20500;-77
2022/12/10 15:24:15;;;;;;;58.85;29.92;;;;;;;0.86;100.00;100922.53;5243939;28;20476;-77
2022/12/10 15:26:50;;;;;;;50.08;28.52;;;;;;;0.63;99.06;100925.06;5258054;28;20365;-77
2022/12/10 15:29:21;;;;;;;53.38;27.48;;;;;;;0.62;99.57;100926.13;5265522;28;20024;-77
2022/12/10 15:31:59;;;;;;;49.85;26.67;;;;;;;0.59;99.83;100927.41;5255309;28;20025;-78
2022/12/10 15:34:54;;;;;;;61.47;34.38;;;;;;;0.66;99.97;100921.88;5245803;28;20064;-78
2022/12/10 15:37:31;;;;;;;50.53;25.40;;;;;;;0.64;99.70;100933.03;5247310;28;20021;-76
2022/12/10 15:40:07;;;;;;;46.05;25.60;;;;;;;0.95;100.00;100934.03;5273325;28;20077;-79
2022/12/10 15:42:40;;;;;;;51.88;28.10;;;;;;;0.78;99.90;100931.03;5264573;28;20045;-78
2022/12/10 15:45:22;;;;;;;48.45;25.98;;;;;;;0.85;99.65;100933.69;5248006;28;20120;-76
2022/12/10 15:47:58;;;;;;;51.55;26.63;;;;;;;0.79;99.76;100937.31;5256443;28;20024;-75
2022/12/10 15:50:29;;;;;;;;;;;;;;;1.03;100.00;100941.09;5288088;28;20028;-74
2022/12/10 15:53:00;;;;;;;50.33;27.73;;;;;;;1.02;100.00;100933.97;5285837;28;20360;-70
2022/12/10 15:55:34;;;;;;;48.28;25.75;;;;;;;1.05;99.71;100930.81;5272417;28;20013;-74
2022/12/10 15:58:13;;;;;;;50.42;27.15;;;;;;;1.12;99.46;100934.28;5244640;28;20025;-74
2022/12/10 16:00:46;;;;;;;49.00;26.52;;;;;;;1.03;98.03;100927.44;5260450;28;20052;-76
2022/12/10 16:03:19;;;;;;;51.80;28.90;;;;;;;0.96;98.93;100935.69;5265374;28;20483;-74
2022/12/10 16:05:50;;;;;;;55.90;29.23;;;;;;;0.84;99.23;100937.47;5254602;28;20407;-74
2022/12/10 16:08:25;;;;;;;51.25;27.25;;;;;;;0.76;99.54;100935.84;5251259;28;20029;-75
2022/12/10 16:11:02;;;;;;;62.05;34.50;;;;;;;0.86;100.00;100933.47;5265693;28;20112;-74
2022/12/10 16:13:36;;;;;;;46.03;25.95;;;;;;;0.82;99.23;100928.69;5249422;28;20108;-73
2022/12/10 16:16:10;;;;;;;48.42;27.67;;;;;;;0.76;99.32;100933.13;5244943;28;20037;-74
2022/12/10 16:18:41;;;;;;;47.67;25.85;;;;;;;0.70;99.86;100935.94;5259423;28;20352;-74
2022/12/10 16:21:13;;;;;;;48.90;27.80;;;;;;;0.78;100.00;100932.91;5263048;28;20105;-73
2022/12/10 16:23:44;;;;;;;45.28;28.05;;;;;;;0.76;100.00;100933.13;5264665;28;20021;-73
2022/12/10 16:26:20;;;;;;;54.42;29.25;;;;;;;0.63;100.00;100933.25;5264461;28;20025;-72
2022/12/10 16:28:51;;;;;;;50.60;27.42;;;;;;;0.61;100.00;100929.88;5244203;28;20448;-71
2022/12/10 16:31:24;;;;;;;52.75;29.85;;;;;;;0.62;100.00;100932.41;5249694;28;20040;-73
2022/12/10 16:33:56;;;;;;;56.03;30.58;;;;;;;0.61;100.00;100928.03;5264124;28;20049;-73
2022/12/10 16:36:27;;;;;;;51.30;29.05;;;;;;;0.67;100.00;100933.66;5264855;28;20032;-73
